Flight Track Log - Related Links

Times and Time Zones

All times are in EDT time to prevent confusion due to time zone crossing. See the AAL1644 flight status page for this flight to view local times or setup timezone preferences in your user account.

Time Position Orientation Groundspeed Altitude Reporting Facility
EDT Latitude Longitude Course Direction KTS MPH feet Rate Location/Type
Sat 05:58:00 PM 20.9856 -105.0670 27° Northeast  Level FlightAware Approximate
Sat 05:59:00 PM 21.0934 -105.0074 27° Northeast  Level FlightAware Approximate
Sat 06:00:00 PM 21.2014 -104.9482 26° Northeast  Level FlightAware Approximate
Sat 06:01:00 PM 21.3100 -104.8903 26° Northeast  Level FlightAware Approximate
Sat 06:02:00 PM 21.4186 -104.8324 25° Northeast  Level FlightAware Approximate
Sat 06:03:00 PM 21.5270 -104.7739 27° Northeast  Level FlightAware Approximate
Sat 06:04:00 PM 21.6339 -104.7122 30° Northeast  Level FlightAware Approximate
Sat 06:05:00 PM 21.7387 -104.6464 32° Northeast  Level FlightAware Approximate
Sat 06:06:00 PM 21.8441 -104.5820 28° Northeast  Level FlightAware Approximate
Sat 06:07:00 PM 21.9507 -104.5196 29° Northeast  Level FlightAware Approximate
Sat 06:08:00 PM 22.0595 -104.4619 25° Northeast  Level FlightAware Approximate
Sat 06:09:00 PM 22.1652 -104.3980 30° Northeast  Level FlightAware Approximate
Sat 06:10:00 PM 22.2698 -104.3317 25° Northeast  Level FlightAware Approximate
Sat 06:11:00 PM 22.3799 -104.2767 25° Northeast  Level FlightAware Approximate
Sat 06:12:00 PM 22.4877 -104.2168 29° Northeast  Level FlightAware Approximate
Sat 06:13:00 PM 22.5934 -104.1523 29° Northeast  Level FlightAware Approximate
Sat 06:14:00 PM 22.6990 -104.0877 29° Northeast  Level FlightAware Approximate
Sat 06:15:00 PM 22.8063 -104.0264 29° Northeast  Level FlightAware Approximate
Sat 06:16:00 PM 22.9125 -103.9629 29° Northeast  Level FlightAware Approximate
Sat 06:17:00 PM 23.0188 -103.8994 29° Northeast  Level FlightAware Approximate
Sat 06:18:00 PM 23.1250 -103.8357 29° Northeast  Level FlightAware Approximate
Sat 06:19:00 PM 23.2312 -103.7720 29° Northeast  Level FlightAware Approximate
Sat 06:20:00 PM 23.3374 -103.7081 29° Northeast  Level FlightAware Approximate
Sat 06:21:00 PM 23.4435 -103.6441 29° Northeast  Level FlightAware Approximate
Sat 06:22:00 PM 23.5496 -103.5799 29° Northeast  Level FlightAware Approximate
Sat 06:23:00 PM 23.6554 -103.5153 29° Northeast  Level FlightAware Approximate
Sat 06:24:00 PM 23.7612 -103.4505 29° Northeast  Level FlightAware Approximate
Sat 06:25:00 PM 23.8670 -103.3856 29° Northeast  Level FlightAware Approximate
Sat 06:26:00 PM 23.9727 -103.3206 29° Northeast  Level FlightAware Approximate
Sat 06:27:00 PM 24.0793 -103.2571 28° Northeast  Level FlightAware Approximate
Sat 06:28:00 PM 24.1862 -103.1945 29° Northeast  Level FlightAware Approximate
Sat 06:29:00 PM 24.2921 -103.1296 29° Northeast  Level FlightAware Approximate
Sat 06:30:00 PM 24.3980 -103.0646 29° Northeast  Level FlightAware Approximate
Sat 06:31:00 PM 24.5038 -102.9995 29° Northeast  Level FlightAware Approximate
Sat 06:32:00 PM 24.6096 -102.9343 29° Northeast  Level FlightAware Approximate
Sat 06:33:00 PM 24.7154 -102.8690 29° Northeast  Level FlightAware Approximate
Sat 06:34:00 PM 24.8212 -102.8036 29° Northeast  Level FlightAware Approximate
Sat 06:35:00 PM 24.9271 -102.7384 29° Northeast  Level FlightAware Approximate
Sat 06:36:00 PM 25.0329 -102.6731 29° Northeast  Level FlightAware Approximate
Sat 06:37:00 PM 25.1388 -102.6077 29° Northeast  Level FlightAware Approximate
Sat 06:38:00 PM 25.2446 -102.5421 29° Northeast  Level FlightAware Approximate
Sat 06:39:00 PM 25.3504 -102.4764 29° Northeast  Level FlightAware Approximate
Sat 06:40:00 PM 25.4561 -102.4107 29° Northeast  Level FlightAware Approximate
Sat 06:41:00 PM 25.5618 -102.3448 29° Northeast  Level FlightAware Approximate
Sat 06:42:00 PM 25.6675 -102.2788 29° Northeast  Level FlightAware Approximate
Sat 06:43:00 PM 25.7732 -102.2126 29° Northeast  Level FlightAware Approximate
Sat 06:44:00 PM 25.8788 -102.1464 29° Northeast  Level FlightAware Approximate
Sat 06:45:00 PM 25.9844 -102.0800 29° Northeast  Level FlightAware Approximate
Sat 06:46:00 PM 26.0900 -102.0135 29° Northeast  Level FlightAware Approximate
Sat 06:47:00 PM 26.1955 -101.9470 30° Northeast  Level FlightAware Approximate
Sat 06:48:00 PM 26.3010 -101.8802 30° Northeast  Level FlightAware Approximate
Sat 06:49:00 PM 26.4065 -101.8134 30° Northeast  Level FlightAware Approximate
Sat 06:50:00 PM 26.5120 -101.7464 30° Northeast  Level FlightAware Approximate
Sat 06:51:00 PM 26.6174 -101.6793 30° Northeast  Level FlightAware Approximate
Sat 06:52:00 PM 26.7227 -101.6121 30° Northeast  Level FlightAware Approximate
Sat 06:53:00 PM 26.8281 -101.5448 30° Northeast  Level FlightAware Approximate
Sat 06:54:00 PM 26.9334 -101.4773 30° Northeast  Level FlightAware Approximate
Sat 06:55:00 PM 27.0417 -101.4161 26° Northeast  Level FlightAware Approximate
Sat 06:56:00 PM 27.1506 -101.3560 26° Northeast  Level FlightAware Approximate
Sat 06:57:00 PM 27.2594 -101.2958 26° Northeast  Level FlightAware Approximate
Sat 06:58:00 PM 27.3682 -101.2355 26° Northeast  Level FlightAware Approximate
Sat 06:58:21 PM 27.9728 -100.8922 26° Northeast 545 627 34,900  Level Houston Center
Sat 06:59:00 PM 27.4770 -101.1750 26° Northeast  Level FlightAware Approximate
Sat 06:59:22 PM 28.0764 -100.7678 47° Northeast 544 626 34,900  Level Houston Center
Sat 07:00:00 PM 27.5858 -101.1144 26° Northeast  Level FlightAware Approximate
Sat 07:00:23 PM 28.1744 -100.6350 50° Northeast 548 631 34,900  Level Houston Center
Sat 07:01:00 PM 27.6945 -101.0537 26° Northeast  Level FlightAware Approximate
Sat 07:01:25 PM 28.2739 -100.5036 49° Northeast 548 631 34,900  Level Houston Center
Sat 07:02:00 PM 27.8032 -100.9929 26° Northeast  Level FlightAware Approximate
Sat 07:02:26 PM 28.3692 -100.3689 51° Northeast 546 628 34,900  Level Houston Center
Sat 07:03:00 PM 27.9119 -100.9320 26° Northeast  Level FlightAware Approximate
Sat 07:03:27 PM 28.4825 -100.2047 52° Northeast 549 632 34,900  Level Houston Center
Sat 07:04:29 PM 28.5767 -100.0689 52° Northeast 547 629 34,900  Level Houston Center
Sat 07:05:30 PM 28.6647 -99.9469 51° Northeast 548 631 34,900  Level Houston Center
Sat 07:06:32 PM 28.7703 -99.7983 51° Northeast 550 633 34,900 49 Level Houston Center
Sat 07:07:33 PM 28.9033 -99.6856 37° Northeast 552 635 35,000 49 Climbing Houston Center
Sat 07:08:34 PM 29.0383 -99.6161 24° Northeast 539 620 35,000 -49 Level Houston Center
Sat 07:09:36 PM 29.1733 -99.5411 26° Northeast 539 620 34,900 -49 Descending Houston Center
Sat 07:10:37 PM 29.3081 -99.4653 26° Northeast 541 623 34,900  Level Houston Center
Sat 07:11:39 PM 29.4394 -99.3911 26° Northeast 530 610 34,900 49 Level Houston Center
Sat 07:12:40 PM 29.5858 -99.3086 26° Northeast 539 620 35,000 49 Climbing Houston Center
Sat 07:13:41 PM 29.7269 -99.2272 27° Northeast 529 609 35,000  Level Houston Center
Sat 07:14:43 PM 29.8414 -99.1619 26° Northeast 536 617 35,000  Level Houston Center
Sat 07:15:44 PM 29.9972 -99.0722 26° Northeast 540 621 35,000  Level Houston Center
Sat 07:16:45 PM 30.1322 -98.9953 26° Northeast 538 619 35,000 -390 Level Houston Center
Sat 07:17:47 PM 30.2775 -98.9117 26° Northeast 540 621 34,200 -878 Descending Houston Center
Sat 07:18:48 PM 30.4075 -98.8397 26° Northeast 530 610 33,200 -984 Descending Houston Center
Sat 07:19:49 PM 30.5356 -98.7644 27° Northeast 514 592 32,200 -976 Descending Houston Center
Sat 07:20:51 PM 30.6678 -98.6886 26° Northeast 521 600 31,200 -585 Descending Houston Center
Sat 07:21:52 PM 30.7969 -98.6142 26° Northeast 513 590 31,000 -98 Descending Houston Center
Sat 07:22:53 PM 30.9261 -98.5383 27° Northeast 512 589 31,000  Level Houston Center
Sat 07:23:55 PM 31.0567 -98.4633 26° Northeast 514 592 31,000 -410 Level Houston Center
Sat 07:24:50 PM 31.1719 -98.3967 26° Northeast 512 589 30,200 -939 Descending Fort Worth Center
Sat 07:25:50 PM 31.2997 -98.3225 26° Northeast 512 589 29,200 -1,100 Descending Fort Worth Center
Sat 07:26:50 PM 31.4256 -98.2483 27° Northeast 505 581 28,000 -1,600 Descending Fort Worth Center
Sat 07:27:50 PM 31.5514 -98.1667 29° Northeast 505 581 26,000 -2,000 Descending Fort Worth Center
Sat 07:28:50 PM 31.6853 -98.0847 28° Northeast 493 567 24,000 -2,150 Descending Fort Worth Center
Sat 07:29:50 PM 31.8028 -98.0097 28° Northeast 483 556 21,700 -2,250 Descending Fort Worth Center
Sat 07:30:50 PM 31.9117 -97.9419 28° Northeast 459 528 19,500 -2,050 Descending Fort Worth Center
Sat 07:31:50 PM 32.0058 -97.8764 31° Northeast 437 503 17,600 -2,150 Descending Fort Worth Center
Sat 07:32:50 PM 32.1167 -97.8058 28° Northeast 424 488 15,200 -2,150 Descending Fort Worth Center
Sat 07:33:50 PM 32.2044 -97.7497 28° Northeast 401 461 13,300 -1,750 Descending Fort Worth Center
Sat 07:34:50 PM 32.2986 -97.6911 28° Northeast 364 419 11,700 -1,300 Descending Fort Worth Center
Sat 07:35:50 PM 32.3572 -97.6422 35° Northeast 304 350 10,700 -1,250 Descending Fort Worth Center
Sat 07:36:50 PM 32.4136 -97.5733 46° Northeast 271 312 9,200 -1,450 Descending Fort Worth Center
Sat 07:37:50 PM 32.4617 -97.5167 45° Northeast 260 299 7,800 -1,550 Descending Fort Worth Center
Sat 07:38:50 PM 32.4953 -97.4331 64° Northeast 255 293 6,100 -1,300 Descending Fort Worth Center
Sat 07:39:50 PM 32.5244 -97.3617 64° Northeast 255 293 5,200 -550 Descending Fort Worth Center
Sat 07:40:50 PM 32.5578 -97.2778 65° Northeast 255 293 5,000 -100 Descending Fort Worth Center
Sat 07:41:50 PM 32.6036 -97.2236 45° Northeast 243 280 5,000 -300 Level Fort Worth Center
Sat 07:42:50 PM 32.6578 -97.1617 44° Northeast 243 280 4,400 -556 Descending Fort Worth Center
Sat 07:43:38 PM 32.7000 -97.1167 42° Northeast 185 213 4,000 -474 Descending Dallas / Fort Worth TRACON
Sat 07:44:44 PM 32.7333 -97.0833 40° Northeast 176 203 3,500 -667 Descending Dallas / Fort Worth TRACON
Sat 07:45:44 PM 32.7667 -97.0500 40° Northeast 152 175 2,600 -900 Descending Dallas / Fort Worth TRACON

Login

Don't have an account? Register now (free) for customized features, flight alerts, and more!